createdAt,value
2022-10-22T00:00:38.679Z,14.57
2022-10-22T00:03:11.853Z,14.48
2022-10-22T00:05:56.164Z,14.57
2022-10-22T00:08:24.403Z,14.40
2022-10-22T00:10:59.067Z,14.44
2022-10-22T00:13:29.474Z,14.45
2022-10-22T00:16:06.783Z,14.42
2022-10-22T00:18:37.691Z,14.47
2022-10-22T00:21:07.258Z,14.44
2022-10-22T00:23:38.041Z,14.42
2022-10-22T00:26:11.683Z,14.33
2022-10-22T00:28:51.804Z,14.31
2022-10-22T00:31:20.475Z,14.64
2022-10-22T00:33:51.012Z,14.70
2022-10-22T00:36:30.179Z,14.91
2022-10-22T00:39:08.566Z,15.18
2022-10-22T00:41:44.666Z,15.19
2022-10-22T00:44:35.355Z,15.22
2022-10-22T00:47:05.500Z,15.13
2022-10-22T00:49:45.675Z,14.94
2022-10-22T00:52:16.444Z,15.01
2022-10-22T00:54:49.805Z,14.83
2022-10-22T00:57:24.150Z,14.54
2022-10-22T00:59:54.253Z,14.45
2022-10-22T01:02:24.396Z,14.60
2022-10-22T01:04:54.922Z,14.52
2022-10-22T01:07:25.471Z,14.73
2022-10-22T01:10:07.049Z,14.37
2022-10-22T01:12:46.583Z,13.91
2022-10-22T01:15:23.410Z,13.71
2022-10-22T01:18:00.860Z,13.60
2022-10-22T01:20:50.301Z,13.57
2022-10-22T01:23:39.161Z,13.62
2022-10-22T01:26:28.387Z,13.62
2022-10-22T01:29:10.069Z,13.65
2022-10-22T01:31:45.959Z,13.25
2022-10-22T01:34:17.674Z,13.43
2022-10-22T01:36:47.805Z,13.32
2022-10-22T01:39:19.007Z,13.39
2022-10-22T01:41:53.701Z,13.44
2022-10-22T01:44:58.904Z,13.37
2022-10-22T01:47:50.157Z,13.43
2022-10-22T01:50:31.913Z,13.38
2022-10-22T01:53:21.908Z,13.36
2022-10-22T01:56:14.749Z,13.29
2022-10-22T01:58:46.586Z,13.22
2022-10-22T02:01:43.334Z,13.18
2022-10-22T02:04:20.130Z,13.27
2022-10-22T02:06:53.154Z,13.28
2022-10-22T02:09:29.147Z,13.28
2022-10-22T02:12:00.614Z,13.31
2022-10-22T02:14:33.268Z,13.30
2022-10-22T02:17:02.735Z,13.27
2022-10-22T02:19:33.342Z,13.29
2022-10-22T02:22:06.919Z,13.43
2022-10-22T02:24:41.595Z,13.37
2022-10-22T02:27:24.237Z,12.96
2022-10-22T02:30:09.864Z,13.29
2022-10-22T02:33:20.895Z,13.33
2022-10-22T02:35:58.429Z,13.44
2022-10-22T02:38:33.192Z,13.39
2022-10-22T02:41:11.519Z,13.39
2022-10-22T02:43:55.529Z,13.29
2022-10-22T02:46:25.765Z,13.21
2022-10-22T02:48:55.603Z,13.32
2022-10-22T02:51:28.049Z,13.37
2022-10-22T02:54:05.807Z,13.28
2022-10-22T02:56:34.983Z,13.33
2022-10-22T02:59:07.958Z,13.46
2022-10-22T03:01:36.297Z,13.38
2022-10-22T03:04:05.984Z,13.44
2022-10-22T03:06:46.241Z,13.47
2022-10-22T03:12:00.277Z,13.47
2022-10-22T03:14:33.893Z,13.48
2022-10-22T03:17:04.575Z,13.53
2022-10-22T03:22:41.892Z,13.42
2022-10-22T03:25:20.637Z,13.54
2022-10-22T03:27:50.800Z,13.46
2022-10-22T03:30:29.278Z,13.42
2022-10-22T03:32:59.662Z,13.49
2022-10-22T03:35:31.999Z,13.50
2022-10-22T03:40:47.258Z,13.57
2022-10-22T03:43:17.293Z,13.56
2022-10-22T03:45:46.989Z,13.52
2022-10-22T03:48:17.687Z,13.58
2022-10-22T03:50:49.104Z,13.52
2022-10-22T03:53:21.958Z,13.52
2022-10-22T03:55:49.572Z,13.51
2022-10-22T03:58:27.190Z,13.56
2022-10-22T04:01:03.915Z,13.62
2022-10-22T04:03:51.579Z,13.71
2022-10-22T04:06:20.846Z,13.71
2022-10-22T04:08:55.974Z,13.65
2022-10-22T04:11:31.804Z,13.71
2022-10-22T04:14:02.612Z,13.68
2022-10-22T04:16:36.287Z,13.71
2022-10-22T04:19:12.155Z,13.71
2022-10-22T04:21:44.587Z,13.65
2022-10-22T04:24:16.994Z,13.57
2022-10-22T04:26:49.052Z,13.64
2022-10-22T04:29:19.711Z,13.63
2022-10-22T04:31:51.137Z,13.66
2022-10-22T04:34:21.786Z,13.78
2022-10-22T04:36:49.340Z,13.78
2022-10-22T04:39:19.598Z,13.87
2022-10-22T04:44:32.625Z,13.78
2022-10-22T04:49:55.831Z,13.78
2022-10-22T04:52:29.290Z,13.78
2022-10-22T04:54:59.450Z,13.84
2022-10-22T04:57:31.342Z,13.87
2022-10-22T05:00:02.416Z,13.88
2022-10-22T05:02:33.440Z,13.93
2022-10-22T05:05:04.073Z,13.95
2022-10-22T05:07:34.596Z,13.95
2022-10-22T05:10:05.152Z,13.96
2022-10-22T05:12:39.819Z,13.96
2022-10-22T05:15:08.706Z,14.00
2022-10-22T05:17:39.493Z,14.05
2022-10-22T05:20:11.065Z,14.11
2022-10-22T05:22:48.180Z,14.09
2022-10-22T05:25:26.561Z,13.97
2022-10-22T05:28:00.338Z,13.89
2022-10-22T05:30:32.583Z,13.98
2022-10-22T05:33:03.937Z,14.04
2022-10-22T05:35:37.662Z,13.80
2022-10-22T05:38:09.239Z,14.01
2022-10-22T05:40:46.863Z,14.04
2022-10-22T05:43:28.454Z,14.06
2022-10-22T05:46:03.482Z,14.15
2022-10-22T05:48:35.078Z,14.14
2022-10-22T05:51:08.479Z,14.10
2022-10-22T05:53:44.358Z,14.05
2022-10-22T05:56:46.145Z,14.06
2022-10-22T05:59:17.869Z,14.11
2022-10-22T06:01:53.840Z,14.14
2022-10-22T06:04:24.721Z,14.16
2022-10-22T06:06:57.943Z,14.11
2022-10-22T06:09:57.237Z,14.10
2022-10-22T06:12:27.738Z,14.08
2022-10-22T06:15:04.323Z,14.04
2022-10-22T06:17:41.927Z,14.12
2022-10-22T06:20:15.420Z,14.19
2022-10-22T06:22:45.428Z,14.20
2022-10-22T06:25:17.473Z,14.10
2022-10-22T06:27:47.488Z,14.14
2022-10-22T06:30:23.945Z,14.18
2022-10-22T06:32:55.178Z,14.17
2022-10-22T06:35:25.228Z,14.17
2022-10-22T06:38:01.821Z,14.11
2022-10-22T06:40:30.422Z,14.14
2022-10-22T06:43:07.682Z,14.18
2022-10-22T06:45:35.470Z,14.22
2022-10-22T06:48:09.145Z,14.28
2022-10-22T06:50:39.086Z,14.32
2022-10-22T06:53:08.339Z,14.42
2022-10-22T06:55:44.876Z,14.60
2022-10-22T06:58:18.986Z,14.71
2022-10-22T07:00:56.059Z,14.80
2022-10-22T07:03:23.886Z,14.86
2022-10-22T07:06:03.627Z,14.96
2022-10-22T07:08:38.365Z,15.00
2022-10-22T07:11:22.267Z,14.97
2022-10-22T07:13:59.485Z,14.99
2022-10-22T07:16:32.075Z,14.99
2022-10-22T07:19:00.666Z,14.89
2022-10-22T07:21:30.909Z,14.84
2022-10-22T07:24:07.773Z,14.76
2022-10-22T07:26:41.661Z,14.78
2022-10-22T07:29:12.952Z,14.77
2022-10-22T07:31:47.414Z,14.80
2022-10-22T07:34:17.786Z,14.82
2022-10-22T07:36:47.977Z,14.83
2022-10-22T07:39:25.371Z,14.86
2022-10-22T07:44:44.717Z,14.91
2022-10-22T07:47:14.647Z,15.15
2022-10-22T07:49:45.908Z,15.26
2022-10-22T07:52:25.691Z,15.17
2022-10-22T07:55:05.801Z,15.15
2022-10-22T07:57:39.070Z,15.07
2022-10-22T08:03:00.127Z,15.10
2022-10-22T08:05:32.293Z,15.12
2022-10-22T08:08:10.011Z,15.08
2022-10-22T08:10:42.278Z,15.03
2022-10-22T08:13:12.663Z,14.99
2022-10-22T08:15:40.885Z,15.00
2022-10-22T08:18:12.122Z,15.02
2022-10-22T08:20:49.628Z,14.93
2022-10-22T08:23:24.497Z,15.02
2022-10-22T08:26:11.530Z,15.06
2022-10-22T08:28:42.184Z,15.04
2022-10-22T08:31:14.091Z,14.92
2022-10-22T08:33:46.809Z,14.82
2022-10-22T08:39:08.892Z,14.99
2022-10-22T08:41:59.671Z,14.96
2022-10-22T08:44:43.528Z,14.90
2022-10-22T08:47:41.756Z,14.95
2022-10-22T08:50:31.990Z,14.91
2022-10-22T08:53:32.097Z,14.99
2022-10-22T08:56:02.596Z,15.00
2022-10-22T09:02:10.676Z,15.07
2022-10-22T09:04:48.854Z,15.12
2022-10-22T09:07:18.604Z,14.99
2022-10-22T09:09:53.128Z,14.96
2022-10-22T09:12:26.133Z,15.06
2022-10-22T09:15:06.302Z,15.06
2022-10-22T09:18:02.776Z,15.06
2022-10-22T09:20:55.562Z,15.12
2022-10-22T09:23:46.458Z,15.10
2022-10-22T09:26:18.998Z,15.04
2022-10-22T09:28:53.133Z,15.08
2022-10-22T09:31:26.406Z,15.13
2022-10-22T09:33:59.587Z,15.15
2022-10-22T09:36:29.912Z,15.13
2022-10-22T09:39:03.206Z,15.02
2022-10-22T09:41:39.282Z,15.04
2022-10-22T09:44:25.372Z,15.09
2022-10-22T09:46:56.090Z,15.15
2022-10-22T09:49:30.963Z,15.12
2022-10-22T09:52:15.937Z,15.03
2022-10-22T09:54:46.194Z,15.10
2022-10-22T09:57:24.228Z,15.08
2022-10-22T10:00:00.136Z,15.12
2022-10-22T10:02:38.558Z,15.14
2022-10-22T10:05:10.970Z,15.18
2022-10-22T10:07:41.330Z,15.19
2022-10-22T10:10:25.631Z,15.12
2022-10-22T10:13:13.923Z,15.21
2022-10-22T10:15:55.688Z,15.25
2022-10-22T10:18:58.749Z,15.26
2022-10-22T10:21:54.007Z,15.05
2022-10-22T10:24:44.596Z,15.08
2022-10-22T10:27:29.031Z,15.04
2022-10-22T10:30:14.768Z,15.07
2022-10-22T10:33:05.762Z,15.03
2022-10-22T10:35:57.953Z,15.11
2022-10-22T10:38:36.281Z,15.13
2022-10-22T10:41:14.585Z,15.11
2022-10-22T10:44:01.279Z,15.07
2022-10-22T10:46:42.328Z,15.12
2022-10-22T10:49:28.587Z,15.18
2022-10-22T10:52:20.356Z,15.11
2022-10-22T10:55:18.160Z,15.10
2022-10-22T10:58:05.394Z,15.06
2022-10-22T11:00:42.908Z,15.10
2022-10-22T11:03:33.675Z,14.77
2022-10-22T11:06:04.074Z,15.16
2022-10-22T11:09:02.163Z,14.94
2022-10-22T11:11:55.166Z,15.07
2022-10-22T11:14:51.882Z,15.04
2022-10-22T11:17:21.987Z,14.99
2022-10-22T11:19:54.783Z,15.07
2022-10-22T11:22:44.509Z,14.97
2022-10-22T11:25:29.473Z,15.03
2022-10-22T11:28:24.838Z,15.03
2022-10-22T11:31:03.908Z,15.01
2022-10-22T11:33:45.519Z,15.04
2022-10-22T11:36:20.172Z,15.04
2022-10-22T11:38:56.265Z,15.00
2022-10-22T11:41:33.377Z,15.01
2022-10-22T11:44:37.263Z,15.05
2022-10-22T11:47:28.816Z,15.04
2022-10-22T11:50:00.238Z,14.99
2022-10-22T11:52:44.756Z,14.99
2022-10-22T11:55:35.819Z,14.97
2022-10-22T11:58:26.674Z,15.00
2022-10-22T12:01:00.727Z,14.96
2022-10-22T12:03:51.199Z,15.02
2022-10-22T12:06:26.182Z,15.03
2022-10-22T12:09:00.513Z,15.04
2022-10-22T12:11:44.365Z,15.00
2022-10-22T12:14:40.278Z,15.07
2022-10-22T12:17:15.858Z,15.03
2022-10-22T12:19:49.984Z,15.09
2022-10-22T12:22:45.348Z,15.09
2022-10-22T12:25:35.867Z,15.13
2022-10-22T12:30:51.550Z,15.13
2022-10-22T12:33:35.534Z,15.05
2022-10-22T12:36:07.908Z,15.12
2022-10-22T12:38:45.160Z,15.12
2022-10-22T12:41:21.244Z,15.14
2022-10-22T12:43:54.257Z,15.15
2022-10-22T12:46:28.655Z,15.08
2022-10-22T12:49:05.838Z,15.09
2022-10-22T12:51:39.863Z,15.06
2022-10-22T12:54:11.035Z,15.08
2022-10-22T12:56:52.995Z,15.12
2022-10-22T12:59:39.176Z,15.10
2022-10-22T13:02:26.590Z,15.06
2022-10-22T13:05:22.744Z,14.97
2022-10-22T13:07:55.433Z,14.96
2022-10-22T13:10:44.597Z,14.92
2022-10-22T13:13:33.177Z,14.94
2022-10-22T13:16:26.821Z,14.89
2022-10-22T13:19:03.299Z,14.90
2022-10-22T13:21:45.659Z,14.93
2022-10-22T13:24:24.788Z,14.94
2022-10-22T13:29:44.792Z,14.86
2022-10-22T13:32:50.796Z,14.87
2022-10-22T13:35:33.997Z,14.88
2022-10-22T13:38:30.991Z,14.88
2022-10-22T13:41:01.724Z,14.88
2022-10-22T13:43:38.355Z,14.84
2022-10-22T13:46:16.369Z,14.91
2022-10-22T13:48:53.761Z,14.85
2022-10-22T13:51:30.274Z,14.83
2022-10-22T13:54:06.870Z,14.80
2022-10-22T13:56:38.206Z,14.79
2022-10-22T13:59:08.729Z,14.76
2022-10-22T14:01:55.096Z,14.76
2022-10-22T14:04:25.509Z,14.64
2022-10-22T14:07:03.709Z,14.55
2022-10-22T14:09:49.107Z,14.50
2022-10-22T14:12:25.087Z,14.52
2022-10-22T14:15:00.373Z,14.57
2022-10-22T14:17:41.484Z,14.49
2022-10-22T14:20:31.025Z,14.40
2022-10-22T14:23:13.552Z,14.35
2022-10-22T14:25:49.961Z,14.26
2022-10-22T14:28:19.293Z,14.30
2022-10-22T14:30:50.609Z,14.24
2022-10-22T14:33:39.846Z,14.26
2022-10-22T14:36:08.288Z,14.30
2022-10-22T14:38:42.786Z,14.24
2022-10-22T14:41:20.896Z,14.15
2022-10-22T14:44:06.271Z,14.11
2022-10-22T14:46:39.085Z,14.20
2022-10-22T14:49:13.689Z,14.17
2022-10-22T14:51:42.132Z,14.11
2022-10-22T14:54:15.896Z,14.15
2022-10-22T14:56:53.028Z,14.17
2022-10-22T14:59:24.904Z,14.19
2022-10-22T15:01:57.852Z,14.01
2022-10-22T15:04:35.511Z,13.96
2022-10-22T15:09:54.343Z,13.89
2022-10-22T15:12:25.194Z,13.89
2022-10-22T15:14:59.403Z,14.00
2022-10-22T15:17:36.199Z,13.97
2022-10-22T15:22:53.919Z,13.93
2022-10-22T15:25:33.080Z,13.93
2022-10-22T15:28:09.467Z,13.81
2022-10-22T15:30:42.401Z,13.91
2022-10-22T15:33:16.384Z,13.91
2022-10-22T15:35:46.513Z,13.95
2022-10-22T15:38:20.807Z,13.99
2022-10-22T15:40:53.543Z,13.87
2022-10-22T15:43:22.294Z,13.79
2022-10-22T15:46:33.112Z,13.81
2022-10-22T15:49:14.764Z,13.70
2022-10-22T15:51:55.751Z,13.78
2022-10-22T15:54:32.999Z,13.79
2022-10-22T15:59:54.919Z,13.77
2022-10-22T16:02:23.787Z,13.71
2022-10-22T16:04:54.689Z,13.67
2022-10-22T16:07:25.549Z,13.53
2022-10-22T16:10:07.088Z,13.64
2022-10-22T16:12:36.777Z,13.60
2022-10-22T16:15:13.580Z,13.59
2022-10-22T16:17:56.738Z,13.59
2022-10-22T16:20:27.473Z,13.55
2022-10-22T16:22:58.080Z,13.54
2022-10-22T16:25:35.312Z,13.44
2022-10-22T16:28:12.368Z,13.41
2022-10-22T16:30:42.865Z,13.51
2022-10-22T16:33:13.356Z,13.54
2022-10-22T16:35:45.627Z,13.52
2022-10-22T16:38:14.909Z,13.55
2022-10-22T16:40:55.341Z,13.61
2022-10-22T16:43:31.948Z,13.56
2022-10-22T16:45:59.738Z,13.45
2022-10-22T16:48:36.897Z,13.36
2022-10-22T16:51:08.944Z,13.39
2022-10-22T16:53:40.757Z,13.51
2022-10-22T16:56:16.558Z,13.60
2022-10-22T16:58:53.749Z,13.49
2022-10-22T17:01:26.681Z,13.38
2022-10-22T17:04:03.727Z,13.40
2022-10-22T17:06:34.630Z,13.41
2022-10-22T17:09:05.167Z,13.36
2022-10-22T17:11:38.167Z,13.40
2022-10-22T17:14:21.675Z,13.48
2022-10-22T17:16:57.916Z,13.49
2022-10-22T17:19:38.621Z,13.39
2022-10-22T17:22:08.900Z,13.41
2022-10-22T17:24:46.970Z,13.46
2022-10-22T17:27:17.970Z,13.50
2022-10-22T17:29:56.535Z,13.49
2022-10-22T17:32:32.173Z,13.39
2022-10-22T17:35:14.976Z,13.43
2022-10-22T17:37:43.898Z,13.47
2022-10-22T17:40:28.478Z,13.44
2022-10-22T17:43:02.036Z,13.49
2022-10-22T17:45:32.472Z,13.41
2022-10-22T17:48:03.597Z,13.47
2022-10-22T17:50:34.909Z,13.36
2022-10-22T17:53:17.164Z,13.40
2022-10-22T17:56:01.131Z,13.27
2022-10-22T17:58:32.386Z,13.27
2022-10-22T18:01:07.530Z,13.35
2022-10-22T18:03:42.817Z,13.24
2022-10-22T18:06:16.470Z,13.25
2022-10-22T18:08:47.266Z,13.32
2022-10-22T18:11:19.060Z,13.32
2022-10-22T18:14:05.779Z,13.41
2022-10-22T18:16:38.938Z,13.39
2022-10-22T18:19:17.954Z,13.42
2022-10-22T18:21:58.808Z,13.42
2022-10-22T18:24:32.548Z,13.35
2022-10-22T18:27:05.093Z,13.34
2022-10-22T18:29:33.221Z,13.25
2022-10-22T18:32:10.736Z,13.39
2022-10-22T18:34:51.363Z,13.41
2022-10-22T18:37:37.906Z,13.44
2022-10-22T18:40:12.463Z,13.38
2022-10-22T18:42:52.276Z,13.33
2022-10-22T18:45:29.816Z,13.31
2022-10-22T18:48:01.401Z,13.33
2022-10-22T18:53:13.237Z,13.27
2022-10-22T18:55:55.570Z,13.22
2022-10-22T18:58:29.350Z,13.26
2022-10-22T19:01:00.567Z,13.22
2022-10-22T19:03:33.818Z,13.23
2022-10-22T19:06:04.425Z,13.17
2022-10-22T19:08:35.837Z,13.22
2022-10-22T19:11:14.064Z,13.23
2022-10-22T19:13:51.344Z,13.31
2022-10-22T19:16:33.921Z,13.25
2022-10-22T19:21:48.439Z,13.30
2022-10-22T19:24:25.943Z,13.16
2022-10-22T19:27:06.498Z,13.18
2022-10-22T19:29:40.196Z,13.21
2022-10-22T19:32:16.352Z,13.19
2022-10-22T19:34:46.565Z,13.10
2022-10-22T19:37:17.854Z,13.21
2022-10-22T19:39:48.307Z,13.20
2022-10-22T19:42:19.522Z,13.10
2022-10-22T19:45:04.024Z,13.11
2022-10-22T19:47:44.709Z,13.27
2022-10-22T19:50:12.561Z,13.20
2022-10-22T19:52:45.527Z,13.18
2022-10-22T19:55:15.420Z,13.15
2022-10-22T19:57:57.361Z,13.21
2022-10-22T20:00:33.624Z,13.27
2022-10-22T20:03:14.936Z,13.05
2022-10-22T20:05:51.467Z,13.03
2022-10-22T20:08:23.363Z,13.11
2022-10-22T20:10:55.548Z,13.16
2022-10-22T20:13:24.565Z,13.04
2022-10-22T20:15:58.746Z,13.04
2022-10-22T20:18:28.758Z,12.96
2022-10-22T20:21:00.138Z,13.01
2022-10-22T20:23:40.156Z,12.87
2022-10-22T20:26:09.925Z,12.84
2022-10-22T20:28:43.750Z,12.89
2022-10-22T20:31:24.456Z,12.87
2022-10-22T20:34:07.147Z,12.81
2022-10-22T20:36:43.080Z,12.77
2022-10-22T20:39:14.209Z,12.83
2022-10-22T20:41:45.490Z,12.93
2022-10-22T20:44:33.174Z,13.02
2022-10-22T20:47:04.292Z,13.05
2022-10-22T20:49:34.915Z,13.02
2022-10-22T20:52:11.227Z,13.04
2022-10-22T20:54:42.640Z,12.99
2022-10-22T20:57:14.134Z,12.90
2022-10-22T20:59:52.082Z,13.00
2022-10-22T21:02:23.607Z,13.00
2022-10-22T21:04:55.698Z,13.06
2022-10-22T21:07:30.752Z,13.02
2022-10-22T21:10:03.406Z,13.02
2022-10-22T21:12:47.746Z,13.02
2022-10-22T21:15:16.004Z,12.95
2022-10-22T21:17:49.750Z,13.04
2022-10-22T21:20:21.030Z,13.04
2022-10-22T21:22:56.211Z,13.08
2022-10-22T21:25:25.992Z,13.13
2022-10-22T21:28:00.030Z,13.07
2022-10-22T21:30:37.432Z,13.05
2022-10-22T21:33:08.606Z,13.05
2022-10-22T21:38:21.174Z,13.07
2022-10-22T21:40:53.708Z,13.06
2022-10-22T21:43:24.159Z,13.03
2022-10-22T21:45:58.307Z,13.06
2022-10-22T21:51:16.411Z,13.05
2022-10-22T21:53:45.707Z,13.00
2022-10-22T21:56:19.349Z,12.95
2022-10-22T21:58:48.557Z,13.04
2022-10-22T22:01:31.199Z,13.13
2022-10-22T22:04:05.859Z,13.15
2022-10-22T22:06:36.395Z,13.14
2022-10-22T22:09:10.991Z,13.17
2022-10-22T22:11:57.794Z,13.10
2022-10-22T22:14:29.183Z,13.08
2022-10-22T22:16:59.767Z,13.08
2022-10-22T22:19:39.598Z,13.05
2022-10-22T22:22:09.929Z,12.96
2022-10-22T22:24:43.991Z,13.00
2022-10-22T22:27:26.669Z,13.00
2022-10-22T22:30:06.147Z,13.03
2022-10-22T22:32:37.558Z,12.90
2022-10-22T22:35:11.380Z,12.81
2022-10-22T22:37:54.899Z,12.85
2022-10-22T22:40:30.274Z,12.83
2022-10-22T22:43:10.296Z,12.89
2022-10-22T22:45:42.961Z,12.82
2022-10-22T22:48:13.832Z,12.87
2022-10-22T22:50:43.918Z,12.77
2022-10-22T22:53:15.849Z,12.75
2022-10-22T22:55:49.324Z,12.75
2022-10-22T22:58:17.622Z,12.86
2022-10-22T23:00:55.089Z,12.81
2022-10-22T23:03:32.485Z,12.80
2022-10-22T23:06:00.138Z,12.89
2022-10-22T23:08:37.622Z,12.87
2022-10-22T23:11:19.770Z,12.86
2022-10-22T23:13:51.114Z,12.86
2022-10-22T23:16:35.458Z,12.84
2022-10-22T23:19:04.959Z,12.77
2022-10-22T23:21:38.618Z,12.72
2022-10-22T23:24:10.092Z,12.73
2022-10-22T23:26:43.727Z,12.61
2022-10-22T23:29:17.395Z,12.57
2022-10-22T23:31:49.527Z,12.56
2022-10-22T23:36:55.997Z,12.51
2022-10-22T23:39:37.529Z,12.49
2022-10-22T23:44:52.817Z,12.52
2022-10-22T23:47:22.300Z,12.48
2022-10-22T23:49:56.296Z,12.45
2022-10-22T23:52:35.684Z,12.35
2022-10-22T23:55:12.786Z,12.33
2022-10-22T23:57:44.536Z,12.33
